Tuesday, September 30, 2014
13:57 UTC
  |  Log In   |  Register Free
Airport Search:

Comanche County-City Airport
(KMKN)

Comanche County-City Airport Diagram
No Airport Diagram Available

FAA data valid effective September 18, 2014 - November 13, 2014 (unless otherwise noted).

 
 
 
 
 
 
 
 
 
 
 
 
 
 

Current Aviation Weather for Comanche County-City Airport (KMKN)

The most recent METAR observation for KMKN was updated at: 1311
METAR Summary (Translated METAR)
KMKN
301255Z AUTO 16003KT 10SM CLR 16/14 A2992 RMK AO2 T01640139
KBWD
301255Z AUTO 00000KT 10SM CLR 15/13 A2992 RMK AO2
(19.7 nm SW from KMKN)
KMNZ
301255Z AUTO 13006KT 10SM CLR 17/14 A2993 RMK AO2 T01660139
(27.6 nm SE from KMKN)
TAF
No TAF information found within 50 nm of KMKN
  Airport Weather Conditions for KMKN

 Current Weather at MKN
62° F
Fair
South winds at 3.5 mph
MKN NOAA Radar

Pressure: 29.92 in
Humidity: 85%
Wind: South at 3.5 MPH (3 KT)
Dew Point: 57.0°F
Visibility: 10.00 mi


Airport Weather Forecast for KMKN

Translated METAR and TAF for KMKN
Translated METAR for KMKN (1351 UTC 30 September 2014)
found at http://aviationweather.gov/adds/metars/
 
METAR text: KMKN 301335Z AUTO 14003KT 10SM CLR 18/15 A2993 RMK AO2 T01840145
Conditions at: KMKN (COMANCHE , TX, US) observed 1335 UTC 30 September 2014
Temperature: 18.4°C (65°F)
Dewpoint: 14.5°C (58°F) [RH = 78%]
Pressure (altimeter): 29.93 inches Hg (1013.6 mb)
Winds: from the SE (140 degrees) at 3 MPH (3 knots; 1.6 m/s)
Visibility: 10 or more miles (16+ km)
Ceiling: at least 12,000 feet AGL
Clouds: sky clear below 12,000 feet AGL
Weather: automated observation with no human augmentation;
there may or may not be significant weather present at this time
Translated TAF for KMKN

There is no translated TAF available for this airport

Find All Airport Services Find A Hotel Find A Rental Car Find A Golf Course Find A Restaurant $100 Hamburger



FBO's on the Field
FBO Company Facility Photos Services Transportation Aviation Fuel Prices: Prices include tax
Catering Weather Repair Courtesy Rental Type 100LL JetA JetA+ MOGAS 8087
 
Comanche County/City Airport

This FBO has not yet been rated
FS:Avfuel
Last Updated: Aug-18
Login to update fuel prices
SS:
Contact Comanche County/City AirportMore FBO Information
 
Add another FBO Facility Photos Catering Weather Repair Courtesy Rental Type 100LL JetA JetA+ MOGAS 8087
Services Transportation Aviation Fuel Prices: Prices include tax


model-print
model-print
model-print
model-print